createdAt,value
2016-07-29T05:22:42.255Z,51
2016-07-29T05:22:52.242Z,51
2016-07-29T05:23:02.245Z,50
2016-07-29T05:23:12.248Z,51
2016-07-29T05:23:22.255Z,51
2016-07-29T05:23:32.254Z,51
2016-07-29T05:23:42.264Z,51
2016-07-29T05:23:52.256Z,50
2016-07-29T05:24:02.276Z,50
2016-07-29T05:24:12.255Z,50
2016-07-29T05:24:22.258Z,51
2016-07-29T05:24:32.259Z,51
2016-07-29T05:24:42.296Z,51
2016-07-29T05:24:52.269Z,50
2016-07-29T05:25:02.270Z,50
2016-07-29T05:25:12.266Z,50
2016-07-29T05:25:22.268Z,50
2016-07-29T05:25:32.274Z,50
2016-07-29T05:25:42.281Z,50
2016-07-29T05:25:52.274Z,50
2016-07-29T05:26:02.277Z,50
2016-07-29T05:26:12.279Z,49
2016-07-29T05:26:22.280Z,50
2016-07-29T05:26:32.281Z,49
2016-07-29T05:26:42.286Z,49
2016-07-29T05:26:52.286Z,48
2016-07-29T05:27:02.291Z,48
2016-07-29T05:27:12.291Z,48
2016-07-29T05:27:22.301Z,48
2016-07-29T05:27:32.288Z,48
2016-07-29T05:27:42.293Z,48
2016-07-29T05:27:52.295Z,48
2016-07-29T05:28:02.309Z,48
2016-07-29T05:28:12.302Z,49
2016-07-29T05:28:22.304Z,48
2016-07-29T05:28:32.302Z,48
2016-07-29T05:28:42.308Z,48
2016-07-29T05:28:52.304Z,48
2016-07-29T05:29:02.306Z,48
2016-07-29T05:29:12.316Z,48
2016-07-29T05:29:22.303Z,48
2016-07-29T05:29:32.311Z,48
2016-07-29T05:30:12.567Z,48
2016-07-29T05:30:22.560Z,49
2016-07-29T05:30:32.565Z,50
2016-07-29T05:30:42.563Z,50
2016-07-29T05:46:33.816Z,53
2016-07-29T05:46:43.771Z,52
2016-07-29T05:54:59.973Z,51
2016-07-29T05:55:09.803Z,50
2016-07-29T05:55:19.803Z,49
2016-07-29T05:55:29.805Z,50
2016-07-29T05:55:39.810Z,50
2016-07-29T05:55:49.810Z,50
2016-07-29T05:55:59.810Z,49
2016-07-29T06:11:22.687Z,50
2016-07-29T06:11:32.689Z,49
2016-07-29T06:11:42.688Z,49
2016-07-29T06:11:52.693Z,49
2016-07-29T06:12:02.690Z,49
2016-07-29T06:12:12.692Z,49
2016-07-29T06:12:22.697Z,49
2016-07-29T06:12:32.702Z,49
2016-07-29T06:12:42.699Z,49
2016-07-29T06:12:52.706Z,49
2016-07-29T06:13:02.707Z,49
2016-07-29T06:13:12.712Z,48
2016-07-29T06:13:22.709Z,48
2016-07-29T06:13:32.711Z,48
2016-07-29T06:13:42.718Z,48
2016-07-29T06:13:52.717Z,48
2016-07-29T06:14:02.702Z,49
2016-07-29T06:14:12.850Z,49
2016-07-29T06:14:22.718Z,49
2016-07-29T06:14:32.887Z,49
2016-07-29T06:14:42.723Z,49
2016-07-29T06:14:52.733Z,49
2016-07-29T06:15:02.728Z,49
2016-07-29T06:15:12.728Z,49
2016-07-29T06:15:22.733Z,50
2016-07-29T06:15:32.735Z,49
2016-07-29T06:15:42.737Z,49
2016-07-29T06:15:52.738Z,49
2016-07-29T06:16:02.733Z,49
2016-07-29T06:16:12.739Z,49
2016-07-29T06:16:22.745Z,49
2016-07-29T06:16:32.746Z,49
2016-07-29T06:16:42.747Z,49
2016-07-29T06:16:52.741Z,49
2016-07-29T06:17:02.758Z,49
2016-07-29T06:17:12.755Z,49
2016-07-29T06:17:22.754Z,49
2016-07-29T06:17:32.759Z,49
2016-07-29T06:17:42.760Z,49
2016-07-29T06:17:52.759Z,49
2016-07-29T06:26:06.213Z,48
2016-07-29T06:26:16.211Z,48
2016-07-29T06:26:26.213Z,47
2016-07-29T06:26:36.215Z,47
2016-07-29T06:26:46.219Z,46
2016-07-29T06:26:56.225Z,46
2016-07-29T06:27:06.224Z,46
2016-07-29T06:27:16.260Z,46
2016-07-29T06:27:26.265Z,46
2016-07-29T06:27:36.259Z,46
2016-07-29T06:27:46.269Z,46
2016-07-29T06:27:56.277Z,45
2016-07-29T06:28:06.271Z,45
2016-07-29T06:28:17.211Z,45
2016-07-29T06:28:26.595Z,45
2016-07-29T06:28:36.595Z,44
2016-07-29T06:28:46.610Z,45
2016-07-29T06:28:56.603Z,45
2016-07-29T06:29:06.594Z,45
2016-07-29T06:29:20.758Z,45
2016-07-29T06:29:30.756Z,45
2016-07-29T06:29:40.760Z,45
2016-07-29T06:29:50.764Z,45
2016-07-29T06:30:02.821Z,45
2016-07-29T06:30:15.203Z,45
2016-07-29T06:30:25.214Z,45
2016-07-29T06:30:37.203Z,45
2016-07-29T06:30:46.575Z,45
2016-07-29T06:30:56.583Z,46
2016-07-29T06:31:06.585Z,45
2016-07-29T06:31:17.303Z,46
2016-07-29T06:31:27.981Z,45
2016-07-29T06:31:38.292Z,45
2016-07-29T06:31:48.290Z,45
2016-07-29T06:31:58.297Z,45
2016-07-29T06:32:08.300Z,45
2016-07-29T06:32:18.289Z,45
2016-07-29T06:32:28.295Z,45
2016-07-29T06:32:38.300Z,45
2016-07-29T06:32:48.294Z,46
2016-07-29T06:32:58.297Z,45
2016-07-29T06:33:08.301Z,45
2016-07-29T06:33:18.303Z,46
2016-07-29T06:33:28.305Z,46
2016-07-29T06:33:38.309Z,45
2016-07-29T06:33:48.313Z,45
2016-07-29T06:33:58.310Z,45
2016-07-29T06:34:08.311Z,46
2016-07-29T06:34:18.312Z,46
2016-07-29T06:34:28.321Z,46
2016-07-29T06:34:38.326Z,46
2016-07-29T06:34:48.327Z,47
2016-07-29T06:34:59.502Z,47
2016-07-29T06:35:10.814Z,47
2016-07-29T06:35:21.854Z,47
2016-07-29T06:35:31.217Z,47
2016-07-29T06:35:41.214Z,47
2016-07-29T06:35:51.215Z,47
2016-07-29T06:36:01.244Z,47
2016-07-29T06:36:11.233Z,47
2016-07-29T06:36:21.435Z,47
2016-07-29T06:36:31.431Z,46
2016-07-29T06:36:41.437Z,47
2016-07-29T06:36:51.441Z,47
2016-07-29T06:37:01.435Z,47
2016-07-29T06:37:11.447Z,47
2016-07-29T06:37:21.444Z,47
2016-07-29T06:37:31.462Z,48
2016-07-29T06:37:41.449Z,47
2016-07-29T06:37:51.458Z,47
2016-07-29T06:38:01.451Z,47
2016-07-29T06:38:12.729Z,47
2016-07-29T06:38:22.087Z,46
2016-07-29T06:38:32.094Z,46
2016-07-29T06:38:42.095Z,46
2016-07-29T06:38:54.490Z,46
2016-07-29T06:39:05.333Z,47
2016-07-29T06:39:15.345Z,47
2016-07-29T06:39:25.329Z,47
2016-07-29T06:39:35.363Z,47
2016-07-29T06:39:46.108Z,47
2016-07-29T06:39:56.120Z,47
2016-07-29T06:40:06.120Z,47
2016-07-29T06:40:16.117Z,47
2016-07-29T06:40:27.594Z,47
2016-07-29T06:40:36.948Z,47
2016-07-29T06:40:46.953Z,47
2016-07-29T06:40:58.062Z,47
2016-07-29T06:41:08.060Z,48
2016-07-29T06:41:20.039Z,47
2016-07-29T06:41:30.548Z,48
2016-07-29T06:41:39.909Z,47
2016-07-29T07:57:14.135Z,44
2016-07-29T07:57:24.028Z,43
2016-07-29T07:57:34.024Z,43
2016-07-29T07:57:44.040Z,43
2016-07-29T07:57:54.039Z,43
2016-07-29T07:58:04.048Z,43
2016-07-29T07:58:14.048Z,43
2016-07-29T07:58:24.041Z,43
2016-07-29T07:58:34.044Z,44
2016-07-29T07:58:44.050Z,44
2016-07-29T07:58:54.045Z,44
2016-07-29T07:59:04.060Z,44
2016-07-29T07:59:14.056Z,44
2016-07-29T07:59:24.055Z,44
2016-07-29T07:59:34.061Z,45
2016-07-29T07:59:44.062Z,44
2016-07-29T07:59:54.061Z,44
2016-07-29T08:00:04.067Z,44
2016-07-29T08:00:14.071Z,44
2016-07-29T08:00:24.068Z,44
2016-07-29T08:00:34.073Z,44
2016-07-29T08:00:44.075Z,44
2016-07-29T08:00:54.077Z,44
2016-07-29T08:01:04.079Z,44
2016-07-29T08:01:14.070Z,44
2016-07-29T08:01:24.080Z,44
2016-07-29T08:01:34.088Z,44
2016-07-29T08:01:44.091Z,44
2016-07-29T08:01:54.107Z,44
2016-07-29T08:02:04.093Z,44
2016-07-29T08:02:14.094Z,44
2016-07-29T08:02:24.093Z,44
2016-07-29T08:02:34.091Z,43
2016-07-29T08:02:44.098Z,44
2016-07-29T08:02:54.110Z,44
2016-07-29T08:03:04.105Z,43
2016-07-29T08:03:14.112Z,43
2016-07-29T08:03:24.118Z,44
2016-07-29T08:03:34.111Z,43
2016-07-29T08:03:44.116Z,43
2016-07-29T08:03:54.126Z,43
2016-07-29T08:04:04.156Z,44
2016-07-29T08:04:14.116Z,44
2016-07-29T08:04:24.120Z,44
2016-07-29T08:04:34.119Z,43
2016-07-29T08:04:44.122Z,43
2016-07-29T08:04:54.114Z,43
2016-07-29T08:05:04.125Z,43
2016-07-29T08:05:14.132Z,43
2016-07-29T08:05:24.134Z,43
2016-07-29T08:05:34.133Z,43
2016-07-29T08:05:44.142Z,43
2016-07-29T08:05:54.136Z,43
2016-07-29T08:06:04.143Z,43
2016-07-29T08:06:14.149Z,43
2016-07-29T08:06:24.143Z,42
2016-07-29T08:06:34.152Z,43
2016-07-29T08:06:44.177Z,43
2016-07-29T08:06:54.150Z,43
2016-07-29T08:07:04.157Z,42
2016-07-29T08:07:14.161Z,43
2016-07-29T08:07:24.155Z,43
2016-07-29T08:07:34.163Z,43
2016-07-29T08:07:44.162Z,43
2016-07-29T08:07:54.171Z,42
2016-07-29T08:08:04.173Z,42
2016-07-29T08:08:14.170Z,42
2016-07-29T08:08:24.178Z,42
2016-07-29T08:08:34.178Z,42
2016-07-29T08:08:44.178Z,42
2016-07-29T08:08:54.181Z,42
2016-07-29T08:09:04.183Z,42
2016-07-29T08:09:14.184Z,42
2016-07-29T08:09:24.207Z,42
2016-07-29T08:09:34.186Z,42
2016-07-29T08:09:44.191Z,42
2016-07-29T08:09:54.180Z,42
2016-07-29T08:10:04.197Z,42
2016-07-29T08:10:14.197Z,42
2016-07-29T08:10:24.196Z,42
2016-07-29T08:10:34.197Z,42
2016-07-29T08:10:44.209Z,42
2016-07-29T08:10:54.220Z,42
2016-07-29T08:11:04.196Z,42
2016-07-29T08:11:14.206Z,42
2016-07-29T08:11:24.197Z,42
2016-07-29T08:11:34.214Z,42
2016-07-29T08:11:44.218Z,42
2016-07-29T08:11:54.215Z,42
2016-07-29T08:12:04.226Z,42
2016-07-29T08:12:14.232Z,42
2016-07-29T08:12:24.226Z,42
2016-07-29T08:12:34.227Z,42
2016-07-29T08:12:44.222Z,42
2016-07-29T08:12:54.227Z,42
2016-07-29T08:13:04.231Z,42
2016-07-29T08:13:14.238Z,42
2016-07-29T08:13:24.232Z,42
2016-07-29T08:13:34.238Z,42
2016-07-29T08:13:44.247Z,42
2016-07-29T08:13:54.239Z,42
2016-07-29T08:14:04.247Z,42
2016-07-29T08:14:14.248Z,42
2016-07-29T08:14:24.251Z,42
2016-07-29T08:14:34.250Z,42
2016-07-29T08:14:44.259Z,42
2016-07-29T08:14:54.259Z,42
2016-07-29T08:15:04.261Z,41
2016-07-29T08:15:14.256Z,41
2016-07-29T08:15:24.271Z,42
2016-07-29T08:15:34.276Z,42
2016-07-29T08:15:44.273Z,42
2016-07-29T08:15:54.270Z,42
2016-07-29T08:16:04.274Z,42
2016-07-29T08:16:14.274Z,42
2016-07-29T08:16:24.273Z,41
2016-07-29T08:16:34.277Z,41
2016-07-29T08:16:44.278Z,41
2016-07-29T08:16:54.285Z,41
2016-07-29T08:17:04.284Z,42
2016-07-29T08:17:14.295Z,42
2016-07-29T08:17:24.297Z,42
2016-07-29T08:17:34.304Z,42
2016-07-29T08:17:44.301Z,42
2016-07-29T08:17:54.301Z,42
2016-07-29T08:18:04.290Z,42
2016-07-29T08:18:14.316Z,42
2016-07-29T08:18:24.302Z,42
2016-07-29T08:18:34.303Z,42
2016-07-29T08:18:44.308Z,42
2016-07-29T08:18:54.304Z,42
2016-07-29T08:19:04.311Z,42
2016-07-29T08:19:14.314Z,42
2016-07-29T08:19:24.316Z,42
2016-07-29T08:19:34.309Z,42
2016-07-29T08:19:44.324Z,41
2016-07-29T08:19:54.320Z,41
2016-07-29T08:20:04.323Z,41
2016-07-29T08:20:14.333Z,41
2016-07-29T08:20:24.337Z,41
2016-07-29T08:20:34.334Z,42
2016-07-29T08:20:44.343Z,42
2016-07-29T08:20:54.330Z,42
2016-07-29T08:21:04.339Z,41
2016-07-29T08:21:14.343Z,41
2016-07-29T08:21:24.343Z,42
2016-07-29T08:21:34.346Z,42
2016-07-29T08:21:44.353Z,42
2016-07-29T08:21:54.357Z,42
2016-07-29T08:22:04.355Z,42
2016-07-29T08:22:14.351Z,42
2016-07-29T08:22:24.359Z,41
2016-07-29T08:22:34.357Z,41
2016-07-29T08:22:44.369Z,41
2016-07-29T08:22:54.357Z,41
2016-07-29T08:23:04.379Z,41
2016-07-29T08:23:14.368Z,41
2016-07-29T08:23:24.367Z,41
2016-07-29T08:23:34.371Z,41
2016-07-29T08:23:44.375Z,41
2016-07-29T08:23:54.373Z,41
2016-07-29T08:24:04.381Z,41
2016-07-29T08:24:14.372Z,41
2016-07-29T08:24:24.373Z,41
2016-07-29T08:24:34.387Z,41
2016-07-29T08:24:44.384Z,41
2016-07-29T08:24:54.387Z,41
2016-07-29T08:25:04.393Z,41
2016-07-29T08:25:14.399Z,41
2016-07-29T08:25:24.392Z,41
2016-07-29T08:25:34.393Z,41
2016-07-29T08:25:44.400Z,41
2016-07-29T08:25:54.404Z,40
2016-07-29T08:26:04.408Z,41
2016-07-29T08:26:14.408Z,41
2016-07-29T08:26:24.410Z,41
2016-07-29T08:26:34.407Z,41
2016-07-29T08:26:44.408Z,41
2016-07-29T08:26:54.416Z,41
2016-07-29T08:27:04.420Z,41
2016-07-29T08:27:14.419Z,41
2016-07-29T08:27:24.415Z,41
2016-07-29T08:27:34.424Z,41
2016-07-29T08:27:44.425Z,41
2016-07-29T08:27:54.440Z,41
2016-07-29T08:28:04.440Z,41
2016-07-29T08:28:14.428Z,41
2016-07-29T08:28:24.434Z,41
2016-07-29T08:28:34.443Z,41
2016-07-29T08:28:44.442Z,41
2016-07-29T08:28:54.440Z,41
2016-07-29T08:29:04.447Z,41
2016-07-29T08:29:14.449Z,41
2016-07-29T08:29:24.451Z,41
2016-07-29T08:29:34.449Z,41
2016-07-29T08:29:44.455Z,40
2016-07-29T08:29:54.453Z,41
2016-07-29T08:30:04.452Z,40
2016-07-29T08:30:14.460Z,40
2016-07-29T08:30:24.473Z,40
2016-07-29T08:30:34.468Z,40
2016-07-29T08:30:44.467Z,41
2016-07-29T08:30:54.464Z,41
2016-07-29T08:31:04.474Z,41
2016-07-29T08:31:14.471Z,41
2016-07-29T08:31:24.484Z,41
2016-07-29T08:31:34.482Z,41
2016-07-29T08:31:44.486Z,41
2016-07-29T08:31:54.488Z,42
2016-07-29T08:32:04.483Z,42
2016-07-29T08:32:14.486Z,42
2016-07-29T08:32:24.488Z,43
2016-07-29T08:32:34.486Z,43
2016-07-29T08:32:44.506Z,43
2016-07-29T08:32:54.492Z,42
2016-07-29T08:33:04.497Z,43
2016-07-29T08:33:14.502Z,43
2016-07-29T08:33:24.507Z,43
2016-07-29T08:33:34.505Z,43
2016-07-29T08:33:44.508Z,43
2016-07-29T08:33:54.510Z,43
2016-07-29T08:34:04.515Z,43
2016-07-29T08:34:14.516Z,43
2016-07-29T08:34:24.521Z,43
2016-07-29T08:34:34.515Z,43
2016-07-29T08:34:44.522Z,42
2016-07-29T08:34:54.520Z,41
2016-07-29T08:35:04.528Z,41
2016-07-29T08:35:14.538Z,41
2016-07-29T08:35:24.533Z,41
2016-07-29T08:35:34.535Z,41
2016-07-29T08:35:45.136Z,41
2016-07-29T08:35:54.614Z,41
2016-07-29T08:36:04.604Z,41
2016-07-29T08:36:15.214Z,41
2016-07-29T08:36:25.335Z,41
2016-07-29T08:36:35.533Z,41
2016-07-29T08:36:45.382Z,41
2016-07-29T08:36:55.353Z,41
2016-07-29T08:37:05.340Z,40
2016-07-29T08:37:15.356Z,40
2016-07-29T08:37:25.379Z,40
2016-07-29T08:37:35.347Z,40
2016-07-29T08:37:45.344Z,40
2016-07-29T08:37:55.357Z,40
2016-07-29T08:38:05.358Z,40
2016-07-29T08:38:15.342Z,40
2016-07-29T08:38:25.369Z,40
2016-07-29T08:38:35.363Z,40
2016-07-29T08:38:45.370Z,40
2016-07-29T08:38:55.371Z,40
2016-07-29T08:39:05.368Z,40
2016-07-29T08:39:15.375Z,40
2016-07-29T08:39:25.364Z,40
2016-07-29T08:39:35.377Z,40
2016-07-29T08:39:45.376Z,40
2016-07-29T08:39:55.379Z,40
2016-07-29T08:40:05.385Z,40
2016-07-29T08:40:15.389Z,40
2016-07-29T08:40:25.389Z,40
2016-07-29T08:40:35.410Z,40
2016-07-29T08:40:45.391Z,40
2016-07-29T08:40:55.389Z,40
2016-07-29T08:41:05.583Z,40
2016-07-29T08:41:15.548Z,41
2016-07-29T08:41:25.592Z,40
2016-07-29T08:41:35.917Z,40
2016-07-29T08:41:45.491Z,41
2016-07-29T08:41:55.448Z,42
2016-07-29T08:42:05.550Z,41
2016-07-29T08:42:15.416Z,41
2016-07-29T08:42:25.426Z,40
2016-07-29T08:42:35.416Z,41
2016-07-29T08:42:45.626Z,41
2016-07-29T10:01:36.651Z,39
2016-07-29T10:01:46.605Z,39
2016-07-29T10:01:56.609Z,39
2016-07-29T10:02:06.612Z,39
2016-07-29T10:02:16.614Z,40
2016-07-29T10:02:27.378Z,39
2016-07-29T10:02:37.383Z,39
2016-07-29T10:02:47.390Z,39
2016-07-29T10:02:58.159Z,39
2016-07-29T10:03:08.160Z,39
2016-07-29T10:03:18.933Z,39
2016-07-29T10:03:28.947Z,39
2016-07-29T10:03:38.933Z,39
2016-07-29T10:03:50.777Z,40
2016-07-29T10:04:00.150Z,40
2016-07-29T10:04:10.339Z,39
2016-07-29T10:04:20.346Z,39
2016-07-29T10:04:30.347Z,39
2016-07-29T10:04:40.346Z,39
2016-07-29T10:04:50.351Z,38
2016-07-29T10:05:00.348Z,38
2016-07-29T10:05:10.351Z,39
2016-07-29T10:05:20.352Z,39
2016-07-29T10:05:30.356Z,39
2016-07-29T10:05:40.357Z,39
2016-07-29T10:05:51.176Z,39
2016-07-29T10:06:01.761Z,39
2016-07-29T10:06:11.761Z,39
2016-07-29T10:06:21.758Z,39
2016-07-29T10:06:31.758Z,39
2016-07-29T10:06:41.766Z,38
2016-07-29T10:06:56.329Z,38
2016-07-29T10:07:05.695Z,38
2016-07-29T10:07:15.697Z,39
2016-07-29T10:07:25.703Z,38
2016-07-29T10:07:35.706Z,38
2016-07-29T10:07:49.718Z,38
2016-07-29T10:07:59.729Z,38
2016-07-29T10:08:09.730Z,38
2016-07-29T10:08:19.732Z,38
2016-07-29T10:08:29.739Z,38
2016-07-29T10:08:39.739Z,38
2016-07-29T10:08:53.123Z,38
2016-07-29T10:09:03.122Z,38
2016-07-29T10:09:13.113Z,38
2016-07-29T10:09:23.115Z,39
2016-07-29T10:09:33.132Z,38
2016-07-29T10:09:43.136Z,38
2016-07-29T10:09:53.128Z,38
2016-07-29T10:10:03.130Z,38
2016-07-29T10:10:13.130Z,38
2016-07-29T10:10:23.146Z,38
2016-07-29T10:10:33.142Z,38
2016-07-29T10:10:43.136Z,38
2016-07-29T10:10:54.363Z,37
2016-07-29T10:11:05.643Z,37
2016-07-29T10:11:17.730Z,37
2016-07-29T10:11:28.533Z,37
2016-07-29T10:11:38.619Z,37
2016-07-29T10:11:48.622Z,37
2016-07-29T10:11:58.617Z,37
2016-07-29T10:12:08.624Z,37
2016-07-29T10:12:18.626Z,37
2016-07-29T10:12:28.627Z,38
2016-07-29T10:12:38.632Z,38
2016-07-29T10:12:49.310Z,37
2016-07-29T10:13:01.896Z,37
2016-07-29T10:13:11.269Z,37
2016-07-29T10:13:22.452Z,37
2016-07-29T10:13:31.822Z,37
2016-07-29T10:13:41.823Z,37
2016-07-29T10:13:51.816Z,38
2016-07-29T10:14:01.836Z,38
2016-07-29T10:14:14.287Z,38
2016-07-29T10:14:25.540Z,38
2016-07-29T10:14:34.901Z,38
2016-07-29T10:14:44.903Z,38
2016-07-29T10:14:54.900Z,38
2016-07-29T10:15:07.296Z,38
2016-07-29T10:15:17.297Z,38
2016-07-29T10:15:27.301Z,38
2016-07-29T10:15:37.310Z,39
2016-07-29T10:15:47.307Z,39
2016-07-29T10:15:57.309Z,38
2016-07-29T10:16:07.313Z,38
2016-07-29T10:16:19.791Z,38
2016-07-29T10:16:29.833Z,37
2016-07-29T10:16:39.838Z,37
2016-07-29T10:16:49.857Z,37
2016-07-29T10:17:03.103Z,37
2016-07-29T10:17:12.458Z,37
2016-07-29T10:17:22.451Z,37
2016-07-29T10:17:32.698Z,37
2016-07-29T10:17:42.708Z,37
2016-07-29T10:17:52.709Z,38
2016-07-29T10:18:02.708Z,38
2016-07-29T10:18:18.040Z,37
2016-07-29T10:18:27.415Z,37
2016-07-29T10:18:37.388Z,37
2016-07-29T10:18:47.412Z,37
2016-07-29T10:18:57.407Z,37
2016-07-29T10:19:09.156Z,37
2016-07-29T10:19:19.164Z,37
2016-07-29T10:19:29.156Z,37
2016-07-29T10:19:39.160Z,37
2016-07-29T10:19:49.172Z,37
2016-07-29T10:19:59.407Z,37
2016-07-29T10:20:09.401Z,37
2016-07-29T10:20:22.220Z,37
2016-07-29T10:20:32.313Z,38
2016-07-29T10:20:42.905Z,38
2016-07-29T10:20:52.912Z,37
2016-07-29T10:21:08.091Z,37
2016-07-29T10:21:17.467Z,37
2016-07-29T10:21:27.658Z,37
2016-07-29T10:21:39.272Z,37
2016-07-29T10:21:49.278Z,37
2016-07-29T10:21:59.293Z,37
2016-07-29T10:22:09.291Z,37
2016-07-29T10:22:19.285Z,37
2016-07-29T10:22:32.632Z,37
2016-07-29T10:22:42.004Z,37
2016-07-29T10:22:55.339Z,37
2016-07-29T10:23:06.179Z,37
2016-07-29T10:23:16.431Z,37
2016-07-29T10:23:26.431Z,37
2016-07-29T10:23:36.436Z,37
2016-07-29T10:23:46.430Z,37
2016-07-29T10:23:57.858Z,37
2016-07-29T10:24:07.221Z,37
2016-07-29T10:24:17.215Z,37
2016-07-29T10:24:27.857Z,37
2016-07-29T10:24:37.230Z,37
2016-07-29T10:24:49.512Z,37
2016-07-29T10:24:59.519Z,37
2016-07-29T10:25:09.514Z,37
2016-07-29T10:25:20.438Z,37
2016-07-29T10:25:31.060Z,37
2016-07-29T10:25:41.055Z,37
2016-07-29T10:25:51.059Z,37
2016-07-29T10:26:01.068Z,37
2016-07-29T10:26:11.076Z,37
2016-07-29T10:26:21.151Z,37
2016-07-29T10:26:31.154Z,37
2016-07-29T10:26:41.158Z,37
2016-07-29T10:26:51.168Z,37
2016-07-29T10:27:01.158Z,37
2016-07-29T10:27:11.169Z,37
2016-07-29T10:27:21.167Z,37
2016-07-29T10:27:31.168Z,37
2016-07-29T10:27:41.167Z,37
2016-07-29T10:27:51.970Z,37
2016-07-29T10:28:01.342Z,37
2016-07-29T10:28:12.195Z,37
2016-07-29T10:28:22.861Z,37
2016-07-29T10:28:32.223Z,37
2016-07-29T10:28:42.231Z,37
2016-07-29T10:28:52.230Z,37
2016-07-29T10:29:02.232Z,37
2016-07-29T10:29:12.239Z,37
2016-07-29T10:29:22.231Z,37
2016-07-29T10:29:32.240Z,37
2016-07-29T10:29:42.237Z,37
2016-07-29T10:29:52.237Z,37
2016-07-29T10:30:02.240Z,37
2016-07-29T10:30:13.085Z,37
2016-07-29T10:30:22.466Z,37
2016-07-29T10:30:32.458Z,37
2016-07-29T10:30:42.465Z,37
2016-07-29T10:30:53.195Z,37
2016-07-29T10:31:03.201Z,37
2016-07-29T10:31:15.429Z,37
2016-07-29T10:31:26.819Z,37
2016-07-29T10:31:37.103Z,37
2016-07-29T10:31:48.326Z,37
2016-07-29T10:31:57.712Z,37
2016-07-29T10:32:07.717Z,36
2016-07-29T10:32:18.431Z,37
2016-07-29T10:32:28.430Z,36
2016-07-29T10:32:38.464Z,37
2016-07-29T10:32:49.354Z,37
2016-07-29T10:33:00.405Z,37
2016-07-29T10:33:09.763Z,37
2016-07-29T10:33:19.771Z,37
2016-07-29T10:33:29.775Z,38
2016-07-29T10:33:39.774Z,38
2016-07-29T10:33:49.782Z,38
2016-07-29T10:33:59.785Z,37
2016-07-29T10:34:10.559Z,37
2016-07-29T10:34:23.525Z,37
2016-07-29T10:34:33.795Z,37
2016-07-29T10:34:43.160Z,37
2016-07-29T10:34:53.163Z,37
2016-07-29T10:35:03.168Z,37
2016-07-29T10:35:13.164Z,37
2016-07-29T10:35:23.173Z,37
2016-07-29T10:35:33.182Z,37
2016-07-29T10:35:44.656Z,37
2016-07-29T10:35:55.735Z,37
2016-07-29T10:36:07.164Z,37
2016-07-29T10:36:17.160Z,37
2016-07-29T10:36:27.168Z,37
2016-07-29T10:36:37.169Z,37
2016-07-29T10:36:47.174Z,37
2016-07-29T10:36:57.163Z,37
2016-07-29T10:37:07.414Z,37
2016-07-29T10:37:17.425Z,37
2016-07-29T10:37:27.422Z,37
2016-07-29T10:37:37.427Z,37
2016-07-29T10:37:47.425Z,37
2016-07-29T10:37:57.434Z,37
2016-07-29T10:38:07.426Z,37
2016-07-29T10:38:17.438Z,37
2016-07-29T10:38:27.442Z,37
2016-07-29T10:38:37.436Z,37
2016-07-29T10:38:47.457Z,37
2016-07-29T10:38:57.445Z,37
2016-07-29T10:39:08.911Z,37
2016-07-29T10:39:18.290Z,37
2016-07-29T10:39:28.278Z,37
2016-07-29T10:39:38.285Z,37
2016-07-29T10:39:48.750Z,37
2016-07-29T10:39:58.757Z,37
2016-07-29T10:40:08.749Z,37
2016-07-29T10:40:18.762Z,37
2016-07-29T10:40:28.757Z,37
2016-07-29T10:40:38.794Z,37
2016-07-29T10:40:51.152Z,37
2016-07-29T10:41:01.157Z,37
2016-07-29T10:41:11.152Z,37
2016-07-29T10:41:21.156Z,37
2016-07-29T10:41:31.164Z,37
2016-07-29T10:58:57.708Z,38
2016-07-29T10:59:07.688Z,39
2016-07-29T10:59:17.697Z,38
2016-07-29T10:59:27.701Z,38
2016-07-29T10:59:37.689Z,38
2016-07-29T10:59:47.691Z,37
2016-07-29T10:59:57.702Z,37
2016-07-29T11:00:07.710Z,38
2016-07-29T11:00:17.708Z,38
2016-07-29T11:00:27.705Z,38
2016-07-29T11:00:37.711Z,38
2016-07-29T11:00:47.719Z,38
2016-07-29T11:00:57.711Z,38
2016-07-29T11:01:07.712Z,38
2016-07-29T11:01:17.722Z,38
2016-07-29T11:01:27.723Z,38
2016-07-29T11:01:37.720Z,38
2016-07-29T11:01:47.754Z,38
2016-07-29T11:01:57.722Z,38
2016-07-29T11:02:07.728Z,38
2016-07-29T11:02:17.735Z,38
2016-07-29T11:02:27.734Z,39
2016-07-29T11:02:37.735Z,39
2016-07-29T11:02:47.739Z,39
2016-07-29T11:02:57.736Z,39
2016-07-29T11:03:07.737Z,39
2016-07-29T11:03:17.742Z,39
2016-07-29T11:03:27.746Z,39
2016-07-29T11:03:37.749Z,39
2016-07-29T11:03:47.751Z,39
2016-07-29T11:03:57.749Z,39
2016-07-29T11:04:07.851Z,39
2016-07-29T11:04:17.744Z,38
2016-07-29T11:04:27.758Z,38
2016-07-29T11:04:37.761Z,38
2016-07-29T11:04:47.766Z,38
2016-07-29T11:04:57.763Z,38
2016-07-29T11:05:07.766Z,39
2016-07-29T11:05:17.763Z,39
2016-07-29T11:05:27.768Z,39
2016-07-29T11:05:37.769Z,39
